Time;durP1;ratioP1;P1;durP2;ratioP2;P2;SDS_P1;SDS_P2;PMS_P1;PMS_P2;Temp;Humidity;BMP_temperature;BMP_pressure;BME280_temperature;BME280_humidity;BME280_pressure;Samples;Min_cycle;Max_cycle;Signal;HPM_P1;HPM_P2
2022/02/01 11:31:50;;;;;;;2.90;2.10;;;;;;;;;;4932238;26;20233;-75
2022/02/01 11:34:19;;;;;;;3.47;1.98;;;;;;;;;;4989801;28;20205;-75
2022/02/01 11:36:46;;;;;;;3.83;2.42;;;;;;;;;;4990586;28;20225;-75
2022/02/01 11:39:15;;;;;;;4.60;2.17;;;;;;;;;;4991268;28;20201;-74
2022/02/01 11:41:43;;;;;;;3.67;2.33;;;;;;;;;;4995534;28;20200;-75
2022/02/01 11:44:11;;;;;;;3.35;2.35;;;;;;;;;;4976398;28;20295;-75
2022/02/01 11:46:38;;;;;;;4.15;2.25;;;;;;;;;;5004167;28;20577;-76
2022/02/01 11:49:08;;;;;;;2.88;2.25;;;;;;;;;;5008292;28;20200;-75
2022/02/01 11:51:35;;;;;;;3.03;2.10;;;;;;;;;;5008929;28;20283;-78
2022/02/01 11:54:04;;;;;;;2.50;2.00;;;;;;;;;;5008904;28;20641;-77
2022/02/01 11:56:32;;;;;;;4.50;2.75;;;;;;;;;;5009153;28;20224;-76
2022/02/01 11:59:03;;;;;;;3.42;2.30;;;;;;;;;;5009304;28;20196;-75
2022/02/01 12:01:34;;;;;;;3.28;2.72;;;;;;;;;;5002825;28;20212;-75
2022/02/01 12:04:03;;;;;;;2.72;2.00;;;;;;;;;;5004107;28;20199;-76
2022/02/01 12:06:39;;;;;;;3.15;2.45;;;;;;;;;;5012242;28;20196;-75
2022/02/01 12:09:10;;;;;;;2.67;2.25;;;;;;;;;;5011695;28;20600;-75
2022/02/01 12:11:40;;;;;;;3.75;2.40;;;;;;;;;;5012157;28;20200;-76
2022/02/01 12:14:07;;;;;;;5.20;3.72;;;;;;;;;;5012389;28;20598;-76
2022/02/01 12:16:34;;;;;;;5.28;3.53;;;;;;;;;;5005461;28;20840;-76
2022/02/01 12:19:03;;;;;;;4.18;3.58;;;;;;;;;;5006789;28;20561;-76
2022/02/01 12:21:35;;;;;;;3.70;3.20;;;;;;;;;;4993037;28;20212;-77
2022/02/01 12:24:05;;;;;;;3.75;3.20;;;;;;;;;;4994378;28;20195;-75
2022/02/01 12:26:33;;;;;;;4.68;3.17;;;;;;;;;;5011233;28;20196;-80
2022/02/01 12:29:03;;;;;;;5.07;3.00;;;;;;;;;;5011576;28;20200;-75
2022/02/01 12:31:30;;;;;;;3.70;2.60;;;;;;;;;;5007702;28;20678;-77
2022/02/01 12:33:58;;;;;;;7.82;2.60;;;;;;;;;;5003621;28;20192;-76
2022/02/01 12:36:28;;;;;;;3.67;2.83;;;;;;;;;;4991782;28;20572;-77
2022/02/01 12:39:03;;;;;;;3.42;2.30;;;;;;;;;;5013256;28;20196;-73
2022/02/01 12:41:40;;;;;;;2.72;2.53;;;;;;;;;;5013913;28;20216;-77
2022/02/01 12:46:52;;;;;;;3.15;2.65;;;;;;;;;;5010789;28;20198;-75
2022/02/01 12:49:20;;;;;;;2.45;2.22;;;;;;;;;;5009461;28;20290;-77
2022/02/01 12:51:48;;;;;;;4.47;2.88;;;;;;;;;;4989320;28;21498;-74
2022/02/01 12:54:23;;;;;;;7.28;3.92;;;;;;;;;;4990444;28;20184;-75
2022/02/01 12:56:52;;;;;;;9.00;6.45;;;;;;;;;;4993741;28;20212;-74
2022/02/01 12:59:22;;;;;;;5.50;3.97;;;;;;;;;;5010358;28;20652;-73
2022/02/01 13:01:49;;;;;;;7.22;5.35;;;;;;;;;;5011398;28;20204;-74
2022/02/01 13:04:24;;;;;;;6.07;4.20;;;;;;;;;;5011587;28;20196;-75
2022/02/01 13:06:53;;;;;;;6.97;4.20;;;;;;;;;;4997129;28;20573;-75
2022/02/01 13:14:55;;;;;;;7.13;4.88;;;;;;;;;;4974973;28;20717;-78
2022/02/01 13:17:39;;;;;;;11.05;4.55;;;;;;;;;;4989673;28;20582;-75
2022/02/01 13:20:12;;;;;;;6.28;4.38;;;;;;;;;;4991715;28;20477;-76
2022/02/01 13:22:55;;;;;;;6.68;4.60;;;;;;;;;;4989322;28;20224;-77
2022/02/01 13:25:30;;;;;;;6.32;4.40;;;;;;;;;;4955085;28;20193;-76
2022/02/01 13:27:59;;;;;;;5.90;4.97;;;;;;;;;;4941283;28;20223;-76
2022/02/01 13:30:26;;;;;;;4.13;3.40;;;;;;;;;;4962004;28;20245;-75
2022/02/01 13:32:54;;;;;;;5.30;3.60;;;;;;;;;;4947746;29;20190;-75
2022/02/01 13:35:21;;;;;;;3.30;3.03;;;;;;;;;;4949044;29;20237;-72
2022/02/01 13:37:49;;;;;;;4.00;3.30;;;;;;;;;;4946423;28;20485;-76
2022/02/01 13:40:24;;;;;;;6.55;4.63;;;;;;;;;;4948020;28;20210;-76
2022/02/01 13:42:52;;;;;;;6.40;4.35;;;;;;;;;;4922863;28;20193;-75
2022/02/01 13:45:20;;;;;;;4.03;3.50;;;;;;;;;;4958435;28;20204;-76
2022/02/01 13:47:50;;;;;;;6.90;3.30;;;;;;;;;;4958213;28;20214;-76
2022/02/01 13:50:18;;;;;;;6.78;3.17;;;;;;;;;;4948780;29;20218;-77
2022/02/01 13:52:56;;;;;;;2.28;1.98;;;;;;;;;;4929951;29;20201;-75
2022/02/01 13:55:24;;;;;;;2.23;2.03;;;;;;;;;;4948180;28;20197;-76
2022/02/01 13:57:54;;;;;;;3.78;2.25;;;;;;;;;;4990541;28;21554;-76
2022/02/01 14:00:23;;;;;;;3.95;1.90;;;;;;;;;;4989938;28;20221;-76
2022/02/01 14:02:56;;;;;;;4.13;2.40;;;;;;;;;;4989761;28;20197;-76
2022/02/01 14:05:26;;;;;;;2.97;2.47;;;;;;;;;;4990766;28;20296;-75
2022/02/01 14:10:45;;;;;;;2.67;2.22;;;;;;;;;;4990290;28;20309;-76
2022/02/01 14:26:46;;;;;;;4.63;2.53;;;;;;;;;;4988563;28;20317;-76
2022/02/01 14:32:13;;;;;;;3.35;2.72;;;;;;;;;;4983238;28;20305;-75
2022/02/01 14:34:42;;;;;;;4.07;2.70;;;;;;;;;;4996193;28;20192;-75
2022/02/01 14:37:14;;;;;;;5.57;2.55;;;;;;;;;;5002651;28;20737;-75
2022/02/01 14:45:04;;;;;;;3.25;2.67;;;;;;;;;;4996609;28;20228;-74
2022/02/01 14:47:32;;;;;;;3.40;2.95;;;;;;;;;;4976221;28;20189;-74
2022/02/01 14:49:59;;;;;;;3.00;2.70;;;;;;;;;;4998971;28;20204;-75
2022/02/01 14:52:27;;;;;;;5.05;3.17;;;;;;;;;;5008519;28;20451;-74
2022/02/01 14:54:58;;;;;;;2.83;2.53;;;;;;;;;;5006263;28;20653;-74
2022/02/01 15:13:35;;;;;;;4.60;4.05;;;;;;;;;;4991817;28;20224;-75
2022/02/01 15:16:02;;;;;;;5.57;4.55;;;;;;;;;;4986227;28;20188;-75
2022/02/01 15:18:31;;;;;;;5.72;5.13;;;;;;;;;;4997566;28;20731;-74
2022/02/01 15:20:58;;;;;;;7.32;6.53;;;;;;;;;;4998176;28;20299;-75
2022/02/01 15:23:26;;;;;;;9.35;7.07;;;;;;;;;;4982533;28;20219;-76
2022/02/01 15:25:53;;;;;;;15.50;8.73;;;;;;;;;;4975996;28;20634;-75
2022/02/01 15:28:21;;;;;;;14.88;10.60;;;;;;;;;;4969128;28;20456;-77
2022/02/01 15:30:48;;;;;;;11.90;9.90;;;;;;;;;;4971045;28;20324;-77
2022/02/01 15:33:17;;;;;;;17.88;14.13;;;;;;;;;;4987214;28;20185;-78
2022/02/01 15:35:46;;;;;;;15.90;11.67;;;;;;;;;;4993962;28;20645;-77
2022/02/01 15:38:16;;;;;;;15.43;10.17;;;;;;;;;;5002051;28;20831;-78
2022/02/01 15:47:03;;;;;;;15.55;10.90;;;;;;;;;;4986628;28;20952;-75
2022/02/01 15:54:45;;;;;;;19.27;14.25;;;;;;;;;;4987506;28;20204;-77
2022/02/01 15:57:20;;;;;;;24.83;16.50;;;;;;;;;;4997530;28;20582;-75
2022/02/01 15:59:48;;;;;;;24.20;14.88;;;;;;;;;;4989786;28;20712;-77
2022/02/01 16:02:17;;;;;;;21.73;16.45;;;;;;;;;;4987985;28;20526;-75
2022/02/01 16:04:53;;;;;;;25.10;15.27;;;;;;;;;;4980328;28;20204;-74
2022/02/01 16:07:24;;;;;;;22.63;15.73;;;;;;;;;;4973749;28;20678;-75
2022/02/01 16:10:04;;;;;;;21.17;14.33;;;;;;;;;;4990208;28;20534;-76
2022/02/01 16:12:35;;;;;;;19.20;13.23;;;;;;;;;;4994527;28;20443;-77
2022/02/01 16:15:02;;;;;;;22.67;15.32;;;;;;;;;;4993280;28;20442;-77
2022/02/01 16:17:30;;;;;;;24.75;15.38;;;;;;;;;;4997895;28;20250;-75
2022/02/01 16:19:57;;;;;;;23.30;14.80;;;;;;;;;;5002964;28;20219;-76
2022/02/01 16:22:26;;;;;;;24.63;14.97;;;;;;;;;;4978077;28;20457;-75
2022/02/01 16:24:53;;;;;;;22.90;15.00;;;;;;;;;;4987791;28;20460;-75
2022/02/01 16:27:20;;;;;;;24.33;15.23;;;;;;;;;;4997137;28;20833;-77
2022/02/01 16:29:47;;;;;;;22.50;15.27;;;;;;;;;;4991171;28;20484;-75
2022/02/01 16:32:15;;;;;;;23.13;14.73;;;;;;;;;;4992903;28;20291;-74
2022/02/01 16:34:43;;;;;;;18.70;14.23;;;;;;;;;;5004134;28;20593;-75
2022/02/01 16:37:12;;;;;;;23.20;15.33;;;;;;;;;;5005329;28;20490;-76
2022/02/01 16:39:43;;;;;;;25.43;14.40;;;;;;;;;;4995808;28;20468;-77
2022/02/01 16:42:13;;;;;;;24.70;14.80;;;;;;;;;;5003760;28;20489;-76
2022/02/01 16:44:40;;;;;;;22.98;15.02;;;;;;;;;;5009436;28;20446;-75
2022/02/01 16:47:07;;;;;;;23.33;14.70;;;;;;;;;;5010992;28;20248;-81
2022/02/01 16:49:34;;;;;;;27.73;14.97;;;;;;;;;;4989512;28;20865;-77
2022/02/01 16:52:04;;;;;;;46.63;14.43;;;;;;;;;;4979348;28;20461;-77
2022/02/01 16:54:41;;;;;;;25.53;13.93;;;;;;;;;;4982035;28;20575;-77
2022/02/01 16:57:12;;;;;;;22.17;14.70;;;;;;;;;;4995532;28;20521;-76
2022/02/01 16:59:41;;;;;;;25.67;16.60;;;;;;;;;;4993306;28;20475;-76
2022/02/01 17:02:09;;;;;;;30.50;17.07;;;;;;;;;;4987123;28;20447;-76
2022/02/01 17:04:38;;;;;;;24.80;16.00;;;;;;;;;;4973859;28;20444;-76
2022/02/01 17:07:05;;;;;;;28.70;14.27;;;;;;;;;;4988409;28;20459;-76
2022/02/01 17:09:34;;;;;;;20.63;13.83;;;;;;;;;;4975023;28;20492;-76
2022/02/01 17:12:14;;;;;;;23.80;12.90;;;;;;;;;;4986442;28;20451;-75
2022/02/01 17:17:41;;;;;;;18.70;13.07;;;;;;;;;;4985340;28;20967;-75
2022/02/01 17:22:51;;;;;;;24.03;13.70;;;;;;;;;;4981746;28;20484;-76
2022/02/01 17:25:18;;;;;;;22.33;13.40;;;;;;;;;;4989939;28;20456;-77
2022/02/01 17:27:45;;;;;;;19.73;12.70;;;;;;;;;;4988750;28;20467;-76
2022/02/01 17:30:14;;;;;;;20.40;12.93;;;;;;;;;;4993700;28;20799;-75
2022/02/01 17:32:41;;;;;;;18.20;12.80;;;;;;;;;;4986275;28;20435;-76
2022/02/01 17:35:09;;;;;;;18.80;12.50;;;;;;;;;;5006895;28;20785;-77
2022/02/01 17:37:36;;;;;;;20.90;12.50;;;;;;;;;;4970766;28;20492;-78
2022/02/01 17:40:04;;;;;;;14.40;10.77;;;;;;;;;;4970933;28;20469;-77
2022/02/01 17:42:31;;;;;;;24.67;11.53;;;;;;;;;;4973023;28;20491;-80
2022/02/01 17:44:58;;;;;;;17.13;10.90;;;;;;;;;;4989270;28;20538;-78
2022/02/01 17:47:27;;;;;;;11.30;10.10;;;;;;;;;;4994146;28;20557;-77
2022/02/01 17:49:54;;;;;;;21.23;10.30;;;;;;;;;;5000197;28;20484;-77
2022/02/01 17:52:35;;;;;;;22.47;10.50;;;;;;;;;;4995950;28;20459;-78
2022/02/01 17:55:02;;;;;;;20.07;9.83;;;;;;;;;;4989591;28;20437;-77
2022/02/01 17:57:29;;;;;;;16.77;10.33;;;;;;;;;;4986561;28;21006;-74
2022/02/01 17:59:56;;;;;;;16.53;9.97;;;;;;;;;;4987639;28;20848;-77
2022/02/01 18:02:23;;;;;;;17.23;11.30;;;;;;;;;;4973992;28;20475;-76
2022/02/01 18:04:52;;;;;;;14.00;9.20;;;;;;;;;;4988246;28;20470;-76
2022/02/01 18:07:21;;;;;;;14.00;8.93;;;;;;;;;;5002120;28;20998;-78
2022/02/01 18:09:48;;;;;;;19.40;8.57;;;;;;;;;;4994267;28;20448;-77
2022/02/01 18:12:24;;;;;;;14.20;7.73;;;;;;;;;;4988701;28;20440;-76
2022/02/01 18:14:58;;;;;;;13.03;8.43;;;;;;;;;;4982014;28;20551;-76
2022/02/01 18:17:26;;;;;;;15.63;8.70;;;;;;;;;;4973674;28;20559;-76
2022/02/01 18:19:56;;;;;;;11.83;6.80;;;;;;;;;;4975858;28;20819;-76
2022/02/01 18:22:24;;;;;;;14.77;7.07;;;;;;;;;;4990578;28;20826;-78
2022/02/01 18:24:51;;;;;;;15.60;6.53;;;;;;;;;;4965500;28;20517;-75
2022/02/01 18:27:19;;;;;;;17.23;7.57;;;;;;;;;;4998273;28;20821;-76
2022/02/01 18:29:48;;;;;;;14.03;6.90;;;;;;;;;;4998680;28;20487;-78
2022/02/01 18:32:17;;;;;;;20.00;8.60;;;;;;;;;;4993548;28;20440;-76
2022/02/01 18:34:44;;;;;;;19.03;7.50;;;;;;;;;;4974304;28;20444;-76
2022/02/01 18:37:14;;;;;;;14.60;6.30;;;;;;;;;;4972002;28;20944;-75
2022/02/01 18:39:43;;;;;;;22.23;7.50;;;;;;;;;;4957126;28;20496;-75
2022/02/01 18:42:14;;;;;;;15.70;6.97;;;;;;;;;;4972759;28;20444;-76
2022/02/01 18:44:41;;;;;;;16.70;6.67;;;;;;;;;;4991005;28;20483;-76
2022/02/01 18:47:10;;;;;;;15.87;6.40;;;;;;;;;;5000775;28;20450;-76
2022/02/01 18:49:42;;;;;;;19.47;7.20;;;;;;;;;;4981793;28;20484;-74
2022/02/01 18:52:19;;;;;;;23.10;8.27;;;;;;;;;;4988341;28;20440;-75
2022/02/01 18:54:59;;;;;;;21.97;6.63;;;;;;;;;;4970933;28;20459;-76
2022/02/01 18:57:29;;;;;;;20.90;8.70;;;;;;;;;;4989265;28;20497;-75
2022/02/01 19:00:11;;;;;;;12.20;6.97;;;;;;;;;;4971791;28;20886;-76
2022/02/01 19:03:00;;;;;;;13.87;6.30;;;;;;;;;;4962494;28;20457;-78
2022/02/01 19:05:37;;;;;;;19.20;6.97;;;;;;;;;;4939719;28;20441;-78
2022/02/01 19:08:18;;;;;;;14.57;6.67;;;;;;;;;;4962167;28;20477;-80
2022/02/01 19:13:29;;;;;;;14.90;5.30;;;;;;;;;;4963467;28;20677;-77
2022/02/01 19:15:58;;;;;;;15.35;6.45;;;;;;;;;;4964860;28;20511;-77
2022/02/01 19:18:26;;;;;;;16.00;7.50;;;;;;;;;;4959554;28;20316;-75
2022/02/01 19:20:54;;;;;;;15.60;6.47;;;;;;;;;;4958256;28;20483;-77
2022/02/01 19:23:22;;;;;;;23.67;5.82;;;;;;;;;;4988638;28;20451;-76
2022/02/01 19:25:51;;;;;;;13.18;4.78;;;;;;;;;;4975688;28;20199;-77
2022/02/01 19:28:19;;;;;;;18.52;6.07;;;;;;;;;;4997954;28;20675;-77
2022/02/01 19:30:47;;;;;;;17.20;4.95;;;;;;;;;;4991170;28;20228;-76
2022/02/01 19:33:18;;;;;;;17.93;4.97;;;;;;;;;;4969431;28;20629;-76
2022/02/01 19:35:45;;;;;;;34.55;5.97;;;;;;;;;;4986349;28;20535;-76
2022/02/01 19:38:15;;;;;;;18.10;5.45;;;;;;;;;;4989669;28;20291;-76
2022/02/01 19:40:44;;;;;;;16.95;5.55;;;;;;;;;;4971610;28;20834;-77
2022/02/01 19:43:13;;;;;;;14.27;5.10;;;;;;;;;;4977029;28;20264;-76
2022/02/01 19:45:43;;;;;;;15.40;5.47;;;;;;;;;;4975518;28;20452;-76
2022/02/01 19:48:12;;;;;;;19.15;5.72;;;;;;;;;;4995622;28;20232;-76
2022/02/01 19:50:39;;;;;;;21.67;7.07;;;;;;;;;;5001001;28;20215;-77
2022/02/01 19:53:09;;;;;;;26.40;7.33;;;;;;;;;;5002786;28;20459;-77
2022/02/01 19:55:36;;;;;;;16.40;6.20;;;;;;;;;;4988975;28;20490;-76
2022/02/01 19:58:05;;;;;;;27.73;7.23;;;;;;;;;;4989473;28;20293;-77
2022/02/01 20:00:33;;;;;;;18.93;7.03;;;;;;;;;;4989534;28;20467;-77
2022/02/01 20:03:03;;;;;;;21.93;6.50;;;;;;;;;;4987074;28;20448;-77
2022/02/01 20:05:35;;;;;;;26.02;7.15;;;;;;;;;;4986014;28;20471;-75
2022/02/01 20:08:06;;;;;;;17.60;6.87;;;;;;;;;;4999547;28;20192;-75
2022/02/01 20:10:35;;;;;;;19.23;5.13;;;;;;;;;;4994998;28;20870;-76
2022/02/01 20:13:03;;;;;;;15.10;5.87;;;;;;;;;;4978665;28;20488;-75
2022/02/01 20:15:30;;;;;;;27.37;6.00;;;;;;;;;;4965169;28;20444;-75
2022/02/01 20:17:59;;;;;;;19.90;4.60;;;;;;;;;;4988961;28;20485;-78
2022/02/01 20:20:28;;;;;;;17.93;4.73;;;;;;;;;;4989213;28;20228;-75
2022/02/01 20:22:56;;;;;;;26.83;5.23;;;;;;;;;;4993023;28;20447;-77
2022/02/01 20:25:25;;;;;;;18.83;5.03;;;;;;;;;;4958906;28;20995;-75
2022/02/01 20:27:53;;;;;;;20.23;4.93;;;;;;;;;;4998856;28;20227;-75
2022/02/01 20:30:20;;;;;;;13.80;5.10;;;;;;;;;;4992664;28;20471;-76
2022/02/01 20:32:48;;;;;;;15.60;4.50;;;;;;;;;;4987841;28;20446;-76
2022/02/01 20:35:21;;;;;;;35.42;6.13;;;;;;;;;;4987800;28;20444;-76
2022/02/01 20:37:48;;;;;;;15.67;5.30;;;;;;;;;;4988294;28;20685;-75
2022/02/01 20:40:19;;;;;;;14.17;5.50;;;;;;;;;;4971946;28;20495;-76
2022/02/01 20:42:46;;;;;;;14.55;5.22;;;;;;;;;;4997764;28;20466;-75
2022/02/01 20:45:15;;;;;;;22.37;6.23;;;;;;;;;;4997789;28;20196;-77
2022/02/01 20:47:42;;;;;;;17.43;4.90;;;;;;;;;;4986946;28;20448;-76
2022/02/01 20:50:09;;;;;;;24.23;5.30;;;;;;;;;;4971362;28;20484;-76
2022/02/01 20:52:38;;;;;;;19.67;5.10;;;;;;;;;;4987964;28;20436;-75
2022/02/01 20:55:07;;;;;;;17.07;4.60;;;;;;;;;;4976457;28;20455;-75
2022/02/01 20:57:35;;;;;;;20.17;5.17;;;;;;;;;;4990018;28;20937;-75
2022/02/01 21:00:02;;;;;;;16.33;6.07;;;;;;;;;;5001005;28;20848;-76
2022/02/01 21:02:29;;;;;;;18.00;5.33;;;;;;;;;;4994296;28;20480;-76
2022/02/01 21:04:58;;;;;;;17.60;5.10;;;;;;;;;;4982716;28;20455;-75
2022/02/01 21:07:25;;;;;;;18.73;5.45;;;;;;;;;;4982885;28;20466;-76
2022/02/01 21:09:54;;;;;;;20.65;4.43;;;;;;;;;;4978029;28;20213;-76
2022/02/01 21:12:23;;;;;;;22.33;5.40;;;;;;;;;;4968451;28;20198;-76
2022/02/01 21:14:51;;;;;;;26.07;5.33;;;;;;;;;;4966212;28;20550;-75
2022/02/01 21:17:19;;;;;;;13.05;4.47;;;;;;;;;;4997137;28;20439;-73
2022/02/01 21:19:46;;;;;;;21.15;6.00;;;;;;;;;;4994614;28;20232;-75
2022/02/01 21:22:13;;;;;;;16.33;5.28;;;;;;;;;;4997671;28;20300;-76
2022/02/01 21:24:41;;;;;;;27.27;5.25;;;;;;;;;;4987939;28;20196;-76
2022/02/01 21:27:09;;;;;;;15.70;5.38;;;;;;;;;;4988393;28;20193;-76
2022/02/01 21:29:39;;;;;;;15.48;4.65;;;;;;;;;;4970197;28;20226;-76
2022/02/01 21:32:06;;;;;;;30.92;6.07;;;;;;;;;;4981880;28;20201;-75
2022/02/01 21:34:33;;;;;;;30.52;4.82;;;;;;;;;;4993934;28;20224;-74
2022/02/01 21:37:00;;;;;;;28.20;6.68;;;;;;;;;;4999879;28;20193;-75
2022/02/01 21:39:28;;;;;;;17.35;5.75;;;;;;;;;;4994513;28;20232;-75
2022/02/01 21:41:55;;;;;;;15.45;4.30;;;;;;;;;;4988336;28;20196;-76
2022/02/01 21:44:23;;;;;;;21.02;4.68;;;;;;;;;;4982364;28;20200;-76
2022/02/01 21:46:51;;;;;;;29.35;5.78;;;;;;;;;;4989074;28;20646;-75
2022/02/01 21:49:18;;;;;;;25.40;5.40;;;;;;;;;;4989817;28;20188;-76
2022/02/01 21:51:45;;;;;;;26.85;6.10;;;;;;;;;;4989624;28;20204;-75
2022/02/01 21:54:12;;;;;;;39.80;6.47;;;;;;;;;;4985391;28;20203;-75
2022/02/01 21:56:40;;;;;;;28.73;5.55;;;;;;;;;;4973273;28;20227;-76
2022/02/01 21:59:09;;;;;;;23.08;5.68;;;;;;;;;;4999350;28;20225;-75
2022/02/01 22:01:37;;;;;;;22.30;5.05;;;;;;;;;;4990849;28;20188;-76
2022/02/01 22:04:05;;;;;;;19.60;5.78;;;;;;;;;;4970323;28;20283;-76
2022/02/01 22:06:32;;;;;;;17.58;5.90;;;;;;;;;;4987107;28;20281;-75
2022/02/01 22:08:59;;;;;;;22.40;7.93;;;;;;;;;;4989573;28;20189;-75
2022/02/01 22:11:26;;;;;;;25.45;6.50;;;;;;;;;;4985674;28;20213;-76
2022/02/01 22:13:53;;;;;;;22.98;5.88;;;;;;;;;;4988494;28;20554;-75
2022/02/01 22:16:21;;;;;;;22.42;5.63;;;;;;;;;;4988246;28;20207;-75
2022/02/01 22:18:50;;;;;;;19.90;5.22;;;;;;;;;;4989697;28;20192;-77
2022/02/01 22:21:17;;;;;;;22.27;5.80;;;;;;;;;;4996530;28;20212;-77
2022/02/01 22:23:44;;;;;;;29.77;7.15;;;;;;;;;;4999890;28;20196;-77
2022/02/01 22:26:12;;;;;;;20.33;5.80;;;;;;;;;;4970407;28;20638;-77
2022/02/01 22:28:53;;;;;;;23.38;5.95;;;;;;;;;;4989294;28;20447;-76
2022/02/01 22:31:21;;;;;;;24.50;5.45;;;;;;;;;;4938372;29;20221;-77
2022/02/01 22:33:50;;;;;;;18.83;5.70;;;;;;;;;;4928469;29;20201;-78
2022/02/01 22:36:17;;;;;;;22.38;6.03;;;;;;;;;;4931702;28;20206;-76
2022/02/01 22:38:44;;;;;;;28.48;6.85;;;;;;;;;;4935637;28;20202;-77
2022/02/01 22:41:12;;;;;;;27.57;6.03;;;;;;;;;;4931384;28;20225;-76
2022/02/01 22:43:40;;;;;;;25.85;5.68;;;;;;;;;;4928977;29;20461;-77
2022/02/01 22:46:12;;;;;;;22.85;5.28;;;;;;;;;;4941491;29;20201;-76
2022/02/01 22:48:40;;;;;;;24.77;6.70;;;;;;;;;;4946636;29;20202;-76
2022/02/01 22:51:09;;;;;;;22.10;7.90;;;;;;;;;;4948227;28;20214;-76
2022/02/01 22:53:36;;;;;;;29.60;6.00;;;;;;;;;;4940605;28;20611;-76
2022/02/01 22:56:04;;;;;;;18.07;5.80;;;;;;;;;;4933966;28;20199;-76
2022/02/01 22:58:32;;;;;;;32.20;7.53;;;;;;;;;;4933273;28;20524;-76
2022/02/01 23:00:59;;;;;;;26.90;6.13;;;;;;;;;;4948208;28;20234;-77
2022/02/01 23:03:26;;;;;;;22.27;5.85;;;;;;;;;;4960682;28;20202;-76
2022/02/01 23:05:58;;;;;;;19.10;5.45;;;;;;;;;;4951636;29;20350;-78
2022/02/01 23:08:33;;;;;;;21.40;5.65;;;;;;;;;;4934270;28;20555;-76
2022/02/01 23:11:04;;;;;;;29.65;6.45;;;;;;;;;;4950942;28;20231;-77
2022/02/01 23:18:53;;;;;;;37.22;5.68;;;;;;;;;;4959510;28;20252;-76
2022/02/01 23:21:21;;;;;;;28.85;5.70;;;;;;;;;;4953470;28;20217;-76
2022/02/01 23:23:52;;;;;;;31.70;6.78;;;;;;;;;;4954686;29;20194;-76
2022/02/01 23:26:19;;;;;;;23.73;5.95;;;;;;;;;;4968922;28;20224;-76
2022/02/01 23:28:47;;;;;;;32.53;6.60;;;;;;;;;;4967659;28;20586;-76
2022/02/01 23:31:16;;;;;;;24.00;5.30;;;;;;;;;;4985584;28;20232;-76
2022/02/01 23:33:49;;;;;;;26.50;5.60;;;;;;;;;;4994597;28;20204;-75
2022/02/01 23:36:26;;;;;;;33.08;6.45;;;;;;;;;;4993637;28;20672;-76
2022/02/01 23:39:20;;;;;;;22.73;5.63;;;;;;;;;;5004332;28;20339;-75
2022/02/01 23:42:12;;;;;;;19.45;5.90;;;;;;;;;;4994318;28;20247;-75
2022/02/01 23:44:45;;;;;;;23.25;6.55;;;;;;;;;;4988417;28;20201;-75
2022/02/01 23:49:53;;;;;;;19.50;5.65;;;;;;;;;;4972909;28;20205;-76
2022/02/01 23:52:21;;;;;;;22.52;4.80;;;;;;;;;;4973455;28;20223;-75
2022/02/01 23:54:49;;;;;;;18.75;7.25;;;;;;;;;;4983682;28;20203;-76
2022/02/01 23:57:18;;;;;;;15.57;4.60;;;;;;;;;;5001653;28;20292;-77
2022/02/01 23:59:50;;;;;;;25.10;5.25;;;;;;;;;;4997019;28;20229;-76
